createdAt,value
2019-03-20T00:01:43.471Z,1.19
2019-03-20T00:06:43.608Z,1.21
2019-03-20T00:09:13.634Z,1.22
2019-03-20T00:11:43.655Z,1.08
2019-03-20T00:14:13.706Z,1.12
2019-03-20T00:16:43.732Z,1.03
2019-03-20T00:19:14.058Z,1.01
2019-03-20T00:21:44.379Z,1.00
2019-03-20T00:24:14.705Z,1.02
2019-03-20T00:26:44.741Z,0.94
2019-03-20T00:29:15.177Z,0.89
2019-03-20T00:31:45.572Z,0.89
2019-03-20T00:34:15.629Z,0.76
2019-03-20T00:36:45.650Z,0.80
2019-03-20T00:39:15.702Z,0.79
2019-03-20T00:41:46.046Z,0.78
2019-03-20T00:46:55.448Z,0.77
2019-03-20T00:49:25.487Z,0.59
2019-03-20T00:51:55.513Z,0.71
2019-03-20T00:54:25.571Z,0.69
2019-03-20T00:56:55.607Z,0.58
2019-03-20T00:59:25.663Z,0.60
2019-03-20T01:01:55.949Z,0.55
2019-03-20T01:04:26.002Z,0.65
2019-03-20T01:06:56.036Z,0.60
2019-03-20T01:09:26.087Z,0.66
2019-03-20T01:11:56.476Z,0.61
2019-03-20T01:14:26.519Z,0.61
2019-03-20T01:16:56.555Z,0.57
2019-03-20T01:19:26.960Z,0.51
2019-03-20T01:21:56.973Z,0.43
2019-03-20T01:24:27.027Z,0.39
2019-03-20T01:26:57.401Z,0.41
2019-03-20T01:29:27.450Z,0.48
2019-03-20T01:31:57.468Z,0.51
2019-03-20T01:34:27.503Z,0.52
2019-03-20T01:36:57.563Z,0.39
2019-03-20T01:39:27.581Z,0.33
2019-03-20T01:41:57.975Z,0.44
2019-03-20T01:44:28.015Z,0.40
2019-03-20T01:46:58.061Z,0.31
2019-03-20T01:49:28.442Z,0.36
2019-03-20T01:54:37.843Z,0.41
2019-03-20T01:57:08.149Z,0.46
2019-03-20T02:02:17.541Z,0.35
2019-03-20T02:04:47.590Z,0.22
2019-03-20T02:07:17.624Z,0.26
2019-03-20T02:09:47.660Z,0.24
2019-03-20T02:12:17.675Z,0.23
2019-03-20T02:14:47.708Z,0.12
2019-03-20T02:17:17.758Z,-0.01
2019-03-20T02:19:47.813Z,0.08
2019-03-20T02:22:17.863Z,0.24
2019-03-20T02:24:47.876Z,0.24
2019-03-20T02:27:17.918Z,0.29
2019-03-20T02:32:27.319Z,0.23
2019-03-20T02:34:57.393Z,0.27
2019-03-20T02:37:27.404Z,0.02
2019-03-20T02:39:57.449Z,0.03
2019-03-20T02:42:27.505Z,0.13
2019-03-20T02:44:57.864Z,0.10
2019-03-20T02:47:27.892Z,0.01
2019-03-20T02:49:57.919Z,-0.11
2019-03-20T02:52:28.306Z,-0.05
2019-03-20T02:54:58.640Z,0.01
2019-03-20T02:57:29.000Z,-0.07
2019-03-20T03:02:38.393Z,-0.27
2019-03-20T03:05:08.452Z,-0.08
2019-03-20T03:07:38.488Z,-0.22
2019-03-20T03:10:14.365Z,-0.24
2019-03-20T03:12:44.496Z,-0.16
2019-03-20T03:15:14.547Z,-0.18
2019-03-20T03:17:44.580Z,-0.19
2019-03-20T03:20:14.628Z,-0.29
2019-03-20T03:22:44.818Z,-0.27
2019-03-20T03:25:15.006Z,-0.18
2019-03-20T03:27:45.314Z,-0.17
2019-03-20T03:30:20.936Z,-0.27
2019-03-20T03:32:50.962Z,-0.32
2019-03-20T03:35:20.997Z,-0.30
2019-03-20T03:37:51.062Z,-0.33
2019-03-20T03:40:21.092Z,-0.25
2019-03-20T03:42:51.459Z,-0.43
2019-03-20T03:45:21.517Z,-0.39
2019-03-20T03:47:51.881Z,-0.32
2019-03-20T03:50:22.232Z,-0.36
2019-03-20T03:52:52.300Z,-0.40
2019-03-20T03:55:22.334Z,-0.40
2019-03-20T03:57:52.380Z,-0.40
2019-03-20T04:00:22.432Z,-0.51
2019-03-20T04:02:52.490Z,-0.50
2019-03-20T04:05:22.536Z,-0.59
2019-03-20T04:07:52.588Z,-0.44
2019-03-20T04:10:22.625Z,-0.59
2019-03-20T04:12:52.956Z,-0.44
2019-03-20T04:18:02.670Z,-0.50
2019-03-20T04:20:32.711Z,-0.48
2019-03-20T04:23:02.766Z,-0.49
2019-03-20T04:25:32.811Z,-0.68
2019-03-20T04:28:03.216Z,-0.72
2019-03-20T04:30:33.273Z,-0.70
2019-03-20T04:33:03.308Z,-0.75
2019-03-20T04:35:33.377Z,-0.72
2019-03-20T04:38:03.398Z,-0.73
2019-03-20T04:40:33.769Z,-0.70
2019-03-20T04:43:03.831Z,-0.89
2019-03-20T04:45:33.863Z,-0.92
2019-03-20T04:48:03.915Z,-0.84
2019-03-20T04:50:33.945Z,-0.77
2019-03-20T04:53:03.991Z,-0.80
2019-03-20T04:55:34.020Z,-0.83
2019-03-20T04:58:04.076Z,-0.90
2019-03-20T05:00:34.424Z,-1.02
2019-03-20T05:03:04.458Z,-0.91
2019-03-20T05:05:34.848Z,-1.02
2019-03-20T05:08:05.186Z,-1.03
2019-03-20T05:10:35.205Z,-1.03
2019-03-20T05:13:05.273Z,-1.18
2019-03-20T05:15:35.310Z,-1.22
2019-03-20T05:18:05.357Z,-1.11
2019-03-20T05:20:35.394Z,-1.14
2019-03-20T05:23:08.289Z,-1.41
2019-03-20T05:25:36.105Z,-1.27
2019-03-20T05:28:06.433Z,-1.14
2019-03-20T05:30:36.846Z,-1.18
2019-03-20T05:33:06.920Z,-1.17
2019-03-20T05:35:36.962Z,-1.13
2019-03-20T05:38:07.000Z,-1.20
2019-03-20T05:40:37.335Z,-1.14
2019-03-20T05:43:07.395Z,-1.21
2019-03-20T05:45:37.424Z,-1.09
2019-03-20T05:48:07.469Z,-1.12
2019-03-20T05:50:37.518Z,-1.03
2019-03-20T05:53:07.566Z,-1.12
2019-03-20T05:55:37.872Z,-1.06
2019-03-20T05:58:08.193Z,-1.03
2019-03-20T06:00:38.556Z,-0.91
2019-03-20T06:03:08.604Z,-0.82
2019-03-20T06:05:38.640Z,-0.81
2019-03-20T06:08:08.688Z,-0.83
2019-03-20T06:10:38.726Z,-0.80
2019-03-20T06:13:08.826Z,-0.73
2019-03-20T06:18:18.605Z,-0.57
2019-03-20T06:20:48.645Z,-0.57
2019-03-20T06:23:18.690Z,-0.46
2019-03-20T06:28:28.097Z,-0.33
2019-03-20T06:30:58.419Z,-0.28
2019-03-20T06:33:28.464Z,-0.18
2019-03-20T06:35:58.506Z,-0.05
2019-03-20T06:38:28.542Z,0.19
2019-03-20T06:40:58.584Z,0.48
2019-03-20T06:43:28.993Z,0.69
2019-03-20T06:45:59.336Z,0.76
2019-03-20T06:48:29.393Z,0.83
2019-03-20T06:50:59.412Z,1.02
2019-03-20T06:53:29.468Z,1.20
2019-03-20T06:55:59.491Z,1.40
2019-03-20T06:58:29.535Z,1.44
2019-03-20T07:01:02.186Z,1.59
2019-03-20T07:11:58.515Z,2.42
2019-03-20T07:14:28.557Z,2.53
2019-03-20T07:16:58.595Z,2.66
2019-03-20T07:19:28.631Z,2.77
2019-03-20T07:21:58.691Z,2.96
2019-03-20T07:24:28.715Z,3.08
2019-03-20T07:26:59.057Z,3.15
2019-03-20T07:29:29.110Z,3.33
2019-03-20T07:31:59.494Z,3.49
2019-03-20T07:34:29.551Z,3.56
2019-03-20T07:36:59.588Z,3.70
2019-03-20T07:39:29.637Z,3.81
2019-03-20T07:41:59.669Z,3.92
2019-03-20T07:44:29.741Z,4.10
2019-03-20T07:46:59.767Z,4.30
2019-03-20T07:49:29.818Z,4.41
2019-03-20T07:51:59.856Z,4.65
2019-03-20T07:54:30.245Z,4.70
2019-03-20T07:57:00.293Z,4.87
2019-03-20T07:59:30.340Z,4.98
2019-03-20T08:02:00.379Z,5.08
2019-03-20T08:07:09.816Z,5.31
2019-03-20T08:09:39.924Z,5.48
2019-03-20T08:12:10.173Z,5.66
2019-03-20T08:14:40.219Z,5.77
2019-03-20T08:17:10.252Z,5.99
2019-03-20T08:19:40.638Z,6.13
2019-03-20T08:22:10.663Z,6.13
2019-03-20T08:24:41.075Z,6.17
2019-03-20T08:27:11.104Z,6.47
2019-03-20T08:29:41.153Z,6.47
2019-03-20T08:32:11.188Z,6.59
2019-03-20T08:37:20.595Z,6.90
2019-03-20T08:39:50.640Z,7.05
2019-03-20T08:42:20.678Z,7.05
2019-03-20T08:44:50.716Z,7.17
2019-03-20T08:47:20.754Z,7.38
2019-03-20T08:49:50.801Z,7.48
2019-03-20T08:52:21.185Z,7.58
2019-03-20T08:54:51.224Z,7.65
2019-03-20T08:57:21.616Z,7.65
2019-03-20T08:59:51.654Z,7.88
2019-03-20T09:02:22.059Z,8.00
2019-03-20T09:04:52.107Z,8.12
2019-03-20T09:07:22.144Z,8.05
2019-03-20T09:09:52.188Z,8.14
2019-03-20T09:12:22.543Z,8.13
2019-03-20T09:14:52.631Z,8.28
2019-03-20T09:17:22.659Z,8.40
2019-03-20T09:19:53.018Z,8.39
2019-03-20T09:22:22.987Z,8.50
2019-03-20T09:27:32.746Z,8.62
2019-03-20T09:30:03.076Z,8.85
2019-03-20T09:32:33.097Z,9.09
2019-03-20T09:35:03.152Z,9.01
2019-03-20T09:37:33.202Z,9.04
2019-03-20T09:40:03.243Z,9.05
2019-03-20T09:42:33.278Z,9.06
2019-03-20T09:45:03.329Z,9.21
2019-03-20T09:47:33.367Z,9.28
2019-03-20T09:50:03.407Z,9.44
2019-03-20T09:52:33.460Z,9.37
2019-03-20T09:55:03.492Z,9.33
2019-03-20T09:57:33.534Z,9.07
2019-03-20T10:00:03.580Z,9.15
2019-03-20T10:02:33.888Z,9.34
2019-03-20T10:05:04.206Z,9.49
2019-03-20T10:07:34.253Z,9.52
2019-03-20T10:10:04.305Z,9.52
2019-03-20T10:12:34.326Z,9.51
2019-03-20T10:15:04.403Z,9.55
2019-03-20T10:17:34.444Z,9.80
2019-03-20T10:20:04.524Z,9.69
2019-03-20T10:22:34.530Z,9.83
2019-03-20T10:25:04.972Z,9.60
2019-03-20T10:27:35.367Z,9.78
2019-03-20T10:32:53.417Z,9.96
2019-03-20T10:35:23.748Z,10.19
2019-03-20T10:37:53.795Z,10.18
2019-03-20T10:40:26.607Z,10.01
2019-03-20T10:42:56.649Z,10.11
2019-03-20T10:45:26.698Z,10.45
2019-03-20T10:47:56.736Z,10.36
2019-03-20T10:50:26.802Z,10.36
2019-03-20T10:52:56.841Z,10.53
2019-03-20T10:55:26.899Z,10.52
2019-03-20T10:57:56.961Z,10.48
2019-03-20T11:00:27.016Z,10.59
2019-03-20T11:02:57.063Z,10.50
2019-03-20T11:05:27.126Z,10.53
2019-03-20T11:07:57.433Z,10.24
2019-03-20T11:10:27.900Z,10.36
2019-03-20T11:12:58.147Z,10.44
2019-03-20T11:15:29.763Z,10.56
2019-03-20T11:17:58.244Z,10.64
2019-03-20T11:20:28.290Z,10.62
2019-03-20T11:22:58.344Z,10.74
2019-03-20T11:28:07.782Z,11.05
2019-03-20T11:30:38.113Z,10.90
2019-03-20T11:33:08.152Z,10.84
2019-03-20T11:35:38.198Z,10.62
2019-03-20T11:38:08.237Z,10.74
2019-03-20T11:40:40.701Z,10.87
2019-03-20T11:43:10.736Z,10.97
2019-03-20T11:45:40.804Z,11.15
2019-03-20T11:48:11.193Z,11.13
2019-03-20T11:50:43.896Z,11.29
2019-03-20T11:53:13.951Z,11.25
2019-03-20T11:55:44.316Z,11.36
2019-03-20T11:58:14.367Z,11.45
2019-03-20T12:00:44.769Z,11.30
2019-03-20T12:03:14.883Z,11.25
2019-03-20T12:05:44.938Z,11.21
2019-03-20T12:08:15.311Z,11.18
2019-03-20T12:10:45.376Z,10.86
2019-03-20T12:13:15.407Z,11.22
2019-03-20T12:15:45.465Z,11.35
2019-03-20T12:18:15.511Z,11.40
2019-03-20T12:20:45.567Z,11.55
2019-03-20T12:23:15.609Z,11.34
2019-03-20T12:25:46.048Z,11.21
2019-03-20T12:28:16.072Z,11.50
2019-03-20T12:30:46.467Z,11.37
2019-03-20T12:33:16.805Z,11.57
2019-03-20T12:35:46.849Z,11.40
2019-03-20T12:38:17.238Z,11.37
2019-03-20T12:40:47.675Z,11.50
2019-03-20T12:43:17.714Z,11.36
2019-03-20T12:45:47.760Z,11.29
2019-03-20T12:48:17.797Z,11.54
2019-03-20T12:50:48.137Z,11.51
2019-03-20T12:56:12.936Z,11.50
2019-03-20T12:58:43.269Z,11.50
2019-03-20T13:01:13.319Z,11.51
2019-03-20T13:03:43.354Z,11.59
2019-03-20T13:06:13.407Z,11.42
2019-03-20T13:08:43.440Z,11.51
2019-03-20T13:11:13.498Z,11.33
2019-03-20T13:13:43.865Z,11.38
2019-03-20T13:16:13.923Z,11.62
2019-03-20T13:18:44.302Z,11.61
2019-03-20T13:21:14.358Z,11.39
2019-03-20T13:26:24.116Z,11.47
2019-03-20T13:28:54.154Z,11.35
2019-03-20T13:31:24.523Z,11.26
2019-03-20T13:33:54.847Z,11.34
2019-03-20T13:36:25.266Z,11.28
2019-03-20T13:38:56.543Z,11.40
2019-03-20T13:41:25.364Z,11.47
2019-03-20T13:43:55.405Z,11.38
2019-03-20T13:46:25.455Z,11.22
2019-03-20T13:48:55.538Z,11.08
2019-03-20T13:51:25.607Z,10.96
2019-03-20T13:53:55.655Z,11.21
2019-03-20T13:56:25.719Z,11.19
2019-03-20T13:58:55.763Z,11.36
2019-03-20T14:01:25.826Z,11.31
2019-03-20T14:03:55.875Z,11.31
2019-03-20T14:06:25.933Z,11.11
2019-03-20T14:11:35.453Z,11.18
2019-03-20T14:14:05.380Z,11.18
2019-03-20T14:16:35.755Z,11.21
2019-03-20T14:19:05.797Z,11.36
2019-03-20T14:21:35.839Z,11.38
2019-03-20T14:24:05.873Z,11.43
2019-03-20T14:26:35.926Z,11.23
2019-03-20T14:29:05.985Z,11.41
2019-03-20T14:31:36.040Z,11.37
2019-03-20T14:34:06.364Z,11.31
2019-03-20T14:36:36.702Z,11.27
2019-03-20T14:39:07.029Z,11.26
2019-03-20T14:41:37.440Z,11.27
2019-03-20T14:44:07.479Z,11.16
2019-03-20T14:46:37.898Z,10.85
2019-03-20T14:49:07.959Z,10.79
2019-03-20T14:51:38.008Z,10.81
2019-03-20T14:54:08.041Z,10.70
2019-03-20T14:56:38.087Z,10.70
2019-03-20T14:59:08.122Z,11.02
2019-03-20T15:01:38.483Z,11.01
2019-03-20T15:04:08.526Z,10.95
2019-03-20T15:06:38.590Z,10.93
2019-03-20T15:09:08.618Z,11.09
2019-03-20T15:11:38.670Z,10.98
2019-03-20T15:14:08.709Z,10.96
2019-03-20T15:16:39.092Z,10.86
2019-03-20T15:19:09.130Z,10.90
2019-03-20T15:21:39.181Z,10.88
2019-03-20T15:24:09.234Z,10.81
2019-03-20T15:26:39.273Z,10.72
2019-03-20T15:29:09.575Z,10.59
2019-03-20T15:31:39.644Z,10.55
2019-03-20T15:36:49.060Z,10.75
2019-03-20T15:39:19.099Z,10.56
2019-03-20T15:41:49.144Z,10.61
2019-03-20T15:44:19.185Z,10.61
2019-03-20T15:46:49.533Z,10.62
2019-03-20T15:49:19.569Z,10.76
2019-03-20T15:51:49.619Z,10.65
2019-03-20T15:54:19.989Z,10.57
2019-03-20T15:56:50.044Z,10.59
2019-03-20T15:59:20.412Z,10.48
2019-03-20T16:01:50.469Z,10.48
2019-03-20T16:04:20.507Z,10.49
2019-03-20T16:06:50.553Z,10.34
2019-03-20T16:09:20.902Z,10.32
2019-03-20T16:11:50.956Z,10.26
2019-03-20T16:14:21.322Z,10.21
2019-03-20T16:16:51.653Z,10.24
2019-03-20T16:19:21.680Z,10.37
2019-03-20T16:21:51.734Z,10.21
2019-03-20T16:24:22.105Z,10.23
2019-03-20T16:26:52.146Z,10.23
2019-03-20T16:29:22.552Z,10.15
2019-03-20T16:31:52.969Z,10.13
2019-03-20T16:34:23.293Z,9.97
2019-03-20T16:36:53.732Z,9.93
2019-03-20T16:39:24.043Z,9.88
2019-03-20T16:41:54.079Z,9.93
2019-03-20T16:44:24.127Z,9.82
2019-03-20T16:46:54.192Z,9.88
2019-03-20T16:49:24.518Z,9.80
2019-03-20T16:51:54.585Z,9.60
2019-03-20T16:54:24.617Z,9.64
2019-03-20T16:56:54.961Z,9.59
2019-03-20T16:59:24.993Z,9.41
2019-03-20T17:01:55.038Z,9.32
2019-03-20T17:04:25.416Z,9.31
2019-03-20T17:06:55.475Z,9.21
2019-03-20T17:09:25.516Z,9.18
2019-03-20T17:11:55.903Z,8.99
2019-03-20T17:14:25.929Z,8.86
2019-03-20T17:16:56.314Z,8.76
2019-03-20T17:19:26.564Z,8.56
2019-03-20T17:21:56.965Z,8.47
2019-03-20T17:24:27.512Z,8.24
2019-03-20T17:26:57.817Z,7.97
2019-03-20T17:29:28.096Z,7.77
2019-03-20T17:31:58.456Z,7.62
2019-03-20T17:34:30.539Z,7.56
2019-03-20T17:36:58.787Z,7.43
2019-03-20T17:39:28.971Z,7.39
2019-03-20T17:41:59.337Z,7.31
2019-03-20T17:44:29.615Z,7.19
2019-03-20T17:46:59.659Z,7.10
2019-03-20T17:49:30.001Z,7.04
2019-03-20T17:52:00.057Z,6.96
2019-03-20T17:54:30.124Z,6.87
2019-03-20T17:57:00.150Z,6.82
2019-03-20T17:59:30.578Z,6.80
2019-03-20T18:02:00.893Z,6.64
2019-03-20T18:04:30.935Z,6.60
2019-03-20T18:07:00.954Z,6.69
2019-03-20T18:09:31.001Z,6.62
2019-03-20T18:12:01.051Z,6.49
2019-03-20T18:14:31.376Z,6.39
2019-03-20T18:17:01.421Z,6.38
2019-03-20T18:19:31.491Z,6.35
2019-03-20T18:22:01.565Z,6.34
2019-03-20T18:24:31.623Z,6.28
2019-03-20T18:27:01.661Z,6.22
2019-03-20T18:29:31.723Z,6.18
2019-03-20T18:32:01.779Z,6.12
2019-03-20T18:34:31.939Z,6.12
2019-03-20T18:37:01.972Z,5.98
2019-03-20T18:39:32.111Z,5.86
2019-03-20T18:42:02.515Z,5.83
2019-03-20T18:44:32.894Z,5.75
2019-03-20T18:47:02.930Z,5.73
2019-03-20T18:49:32.966Z,5.74
2019-03-20T18:52:03.174Z,5.72
2019-03-20T18:54:33.048Z,5.62
2019-03-20T18:57:03.399Z,5.63
2019-03-20T18:59:33.706Z,5.54
2019-03-20T19:02:03.765Z,5.46
2019-03-20T19:04:34.144Z,5.44
2019-03-20T19:07:04.467Z,5.47
2019-03-20T19:12:14.469Z,5.23
2019-03-20T19:14:44.862Z,5.23
2019-03-20T19:17:14.893Z,5.36
2019-03-20T19:19:44.925Z,5.11
2019-03-20T19:22:14.985Z,5.14
2019-03-20T19:27:24.425Z,5.20
2019-03-20T19:32:34.638Z,5.10
2019-03-20T19:35:04.685Z,5.00
2019-03-20T19:37:34.713Z,5.03
2019-03-20T19:48:03.568Z,4.99
2019-03-20T19:50:33.622Z,4.99
2019-03-20T19:53:03.941Z,4.92
2019-03-20T19:55:33.982Z,4.90
2019-03-20T19:58:04.042Z,4.93
2019-03-20T20:00:34.096Z,4.93
2019-03-20T20:03:04.546Z,4.90
2019-03-20T20:05:34.593Z,4.90
2019-03-20T20:08:04.650Z,4.89
2019-03-20T20:10:35.052Z,4.96
2019-03-20T20:13:05.124Z,4.90
2019-03-20T20:15:35.170Z,4.82
2019-03-20T20:18:05.514Z,4.79
2019-03-20T20:20:38.383Z,4.83
2019-03-20T20:23:08.419Z,4.91
2019-03-20T20:25:38.859Z,4.91
2019-03-20T20:28:11.274Z,4.87
2019-03-20T20:30:39.692Z,4.88
2019-03-20T20:33:09.728Z,4.78
2019-03-20T20:35:39.867Z,4.82
2019-03-20T20:40:49.538Z,4.79
2019-03-20T20:43:19.583Z,4.88
2019-03-20T20:45:49.630Z,4.77
2019-03-20T20:48:19.654Z,4.77
2019-03-20T20:50:49.801Z,4.72
2019-03-20T20:53:20.165Z,4.77
2019-03-20T20:55:50.223Z,4.79
2019-03-20T20:58:20.605Z,4.73
2019-03-20T21:00:50.651Z,4.70
2019-03-20T21:03:20.694Z,4.69
2019-03-20T21:05:51.062Z,4.89
2019-03-20T21:08:21.386Z,4.79
2019-03-20T21:10:51.713Z,4.74
2019-03-20T21:13:22.034Z,4.74
2019-03-20T21:15:52.086Z,4.75
2019-03-20T21:18:22.151Z,4.81
2019-03-20T21:23:40.318Z,4.96
2019-03-20T21:26:22.619Z,4.97
2019-03-20T21:28:52.947Z,4.97
2019-03-20T21:34:13.865Z,5.19
2019-03-20T21:37:02.593Z,5.19
2019-03-20T21:39:32.632Z,5.13
2019-03-20T21:42:31.034Z,5.16
2019-03-20T21:48:04.423Z,5.15
2019-03-20T21:50:52.780Z,5.15
2019-03-20T22:02:23.569Z,5.28
2019-03-20T22:04:53.595Z,5.35
2019-03-20T22:07:23.637Z,5.25
2019-03-20T22:09:53.698Z,5.42
2019-03-20T22:12:48.667Z,5.38
2019-03-20T22:18:18.936Z,5.45
2019-03-20T22:26:37.995Z,5.52
2019-03-20T22:35:07.336Z,5.45
2019-03-20T22:37:37.401Z,5.31
2019-03-20T22:40:16.328Z,5.32
2019-03-20T22:42:51.987Z,5.19
2019-03-20T22:45:36.984Z,5.08
2019-03-20T22:48:19.475Z,5.08
2019-03-20T22:51:10.843Z,5.15
2019-03-20T22:53:59.529Z,5.01
2019-03-20T22:57:00.005Z,4.92
2019-03-20T22:59:30.039Z,4.92
2019-03-20T23:02:09.098Z,4.72
2019-03-20T23:04:41.909Z,4.67
2019-03-20T23:07:12.304Z,4.61
2019-03-20T23:09:42.372Z,4.61
2019-03-20T23:12:12.561Z,4.50
2019-03-20T23:14:42.602Z,4.47
2019-03-20T23:17:12.645Z,4.40
2019-03-20T23:19:42.677Z,4.37
2019-03-20T23:22:12.986Z,4.37
2019-03-20T23:24:43.030Z,4.37
2019-03-20T23:27:19.077Z,4.31
2019-03-20T23:29:49.392Z,4.33
2019-03-20T23:32:19.439Z,4.34
2019-03-20T23:34:49.473Z,4.31
2019-03-20T23:37:19.527Z,4.26
2019-03-20T23:39:49.554Z,4.12
2019-03-20T23:42:19.586Z,4.12
2019-03-20T23:44:49.890Z,4.13
2019-03-20T23:47:20.211Z,4.01
2019-03-20T23:49:50.255Z,4.01
2019-03-20T23:52:20.296Z,4.08
2019-03-20T23:54:50.348Z,4.03
2019-03-20T23:57:20.401Z,4.03
2019-03-20T23:59:50.790Z,3.96
